Time;durP1;ratioP1;P1;durP2;ratioP2;P2;SDS_P1;SDS_P2;PMS_P1;PMS_P2;Temp;Humidity;BMP_temperature;BMP_pressure;BME280_temperature;BME280_humidity;BME280_pressure;Samples;Min_cycle;Max_cycle;Signal;HPM_P1;HPM_P2
2021/12/02 00:01:12;;;;;;;7.30;7.00;;;7.40;78.10;;;;;;5049292;28;20032;-77
2021/12/02 00:03:39;;;;;;;7.32;7.03;;;7.40;78.10;;;;;;5051683;28;20025;-77
2021/12/02 00:06:10;;;;;;;7.70;7.30;;;7.40;78.20;;;;;;5051480;28;20025;-77
2021/12/02 00:08:36;;;;;;;7.88;7.47;;;7.30;78.20;;;;;;5050277;28;20029;-77
2021/12/02 00:11:03;;;;;;;9.70;9.10;;;7.30;78.20;;;;;;5049960;28;20033;-77
2021/12/02 00:13:31;;;;;;;7.80;7.40;;;7.30;78.10;;;;;;5045378;28;20064;-77
2021/12/02 00:21:23;;;;;;;7.33;6.93;;;7.20;78.10;;;;;;4993632;28;20427;-77
2021/12/02 00:24:05;;;;;;;7.10;6.80;;;7.20;78.10;;;;;;4961261;28;20038;-77
2021/12/02 00:26:33;;;;;;;7.27;6.97;;;7.20;78.20;;;;;;4961460;28;20110;-77
2021/12/02 00:29:00;;;;;;;7.67;7.27;;;7.10;78.10;;;;;;4975849;28;20045;-77
2021/12/02 00:31:31;;;;;;;7.83;7.43;;;7.10;78.10;;;;;;4973209;28;20034;-77
2021/12/02 00:34:07;;;;;;;8.18;7.55;;;7.10;78.20;;;;;;4948920;28;20058;-77
2021/12/02 00:36:35;;;;;;;8.40;8.00;;;7.10;78.20;;;;;;4971634;28;20030;-77
2021/12/02 00:39:04;;;;;;;8.10;7.70;;;7.00;78.10;;;;;;4984122;28;20042;-77
2021/12/02 00:41:30;;;;;;;7.90;7.50;;;7.00;78.20;;;;;;4989663;28;20430;-77
2021/12/02 00:43:57;;;;;;;7.73;7.37;;;7.00;78.10;;;;;;4985081;28;20046;-77
2021/12/02 00:46:24;;;;;;;8.10;7.70;;;7.00;78.10;;;;;;4973128;28;20058;-77
2021/12/02 00:48:50;;;;;;;8.38;7.88;;;7.00;78.10;;;;;;4992106;28;20038;-77
2021/12/02 00:51:17;;;;;;;8.37;7.97;;;7.00;78.20;;;;;;4976067;28;20074;-77
2021/12/02 00:53:45;;;;;;;7.70;7.32;;;7.00;78.20;;;;;;4960098;28;20054;-77
2021/12/02 00:56:13;;;;;;;8.17;7.67;;;7.00;78.10;;;;;;5019454;28;20032;-77
2021/12/02 00:58:39;;;;;;;8.00;7.60;;;7.00;78.10;;;;;;5049559;28;20044;-77
2021/12/02 01:01:06;;;;;;;7.40;7.10;;;7.00;78.10;;;;;;5049621;28;20032;-77
2021/12/02 01:03:35;;;;;;;7.50;7.20;;;7.00;78.10;;;;;;5051523;28;20370;-77
2021/12/02 01:06:04;;;;;;;8.07;7.57;;;6.90;78.10;;;;;;5053255;28;20037;-76
2021/12/02 01:08:30;;;;;;;8.00;7.60;;;6.90;78.10;;;;;;5033516;28;20052;-76
2021/12/02 01:10:56;;;;;;;7.17;6.87;;;6.90;78.10;;;;;;5053595;28;20036;-76
2021/12/02 01:13:22;;;;;;;7.60;7.20;;;6.90;78.10;;;;;;5046987;28;20049;-77
2021/12/02 01:15:49;;;;;;;8.30;7.57;;;6.90;78.10;;;;;;5053440;28;20103;-77
2021/12/02 01:18:15;;;;;;;7.17;6.87;;;6.80;78.10;;;;;;5051806;28;20063;-77
2021/12/02 01:20:42;;;;;;;7.43;7.13;;;6.80;78.10;;;;;;5053380;28;20033;-76
2021/12/02 01:23:08;;;;;;;8.37;7.87;;;6.80;78.10;;;;;;5052961;28;20032;-77
2021/12/02 01:25:35;;;;;;;8.10;7.70;;;6.80;78.10;;;;;;5052703;28;20155;-77
2021/12/02 01:28:01;;;;;;;7.90;7.50;;;6.80;78.20;;;;;;5054399;28;20040;-77
2021/12/02 01:30:28;;;;;;;7.90;7.50;;;6.80;78.30;;;;;;5052607;28;20033;-76
2021/12/02 01:33:00;;;;;;;6.97;6.67;;;6.70;78.20;;;;;;5052991;28;20037;-77
2021/12/02 01:35:27;;;;;;;7.97;7.50;;;6.70;78.20;;;;;;5053012;28;20025;-77
2021/12/02 01:37:53;;;;;;;7.07;6.77;;;6.70;78.20;;;;;;5047968;28;20381;-77
2021/12/02 01:40:19;;;;;;;7.50;7.20;;;6.70;78.20;;;;;;5053111;28;20021;-77
2021/12/02 01:42:46;;;;;;;8.47;7.90;;;6.60;78.10;;;;;;5052383;28;20029;-76
2021/12/02 01:45:14;;;;;;;7.20;6.90;;;6.60;78.20;;;;;;5052035;28;20034;-77
2021/12/02 01:47:46;;;;;;;7.13;6.83;;;6.60;78.20;;;;;;5043115;28;20056;-77
2021/12/02 01:50:12;;;;;;;;;;;6.60;78.30;;;;;;5053287;28;20027;-77
2021/12/02 01:52:38;;;;;;;7.47;7.07;;;6.60;78.30;;;;;;5035413;28;19925;-77
2021/12/02 01:55:09;;;;;;;7.30;6.90;;;6.50;78.20;;;;;;5052786;28;20032;-77
2021/12/02 01:57:36;;;;;;;;;;;6.50;78.20;;;;;;5052834;28;20021;-77
2021/12/02 02:00:09;;;;;;;7.47;7.17;;;6.50;78.20;;;;;;5051869;28;19909;-77
2021/12/02 02:02:36;;;;;;;8.83;8.20;;;6.50;78.20;;;;;;5052632;28;20488;-77
2021/12/02 02:05:06;;;;;;;8.97;8.57;;;6.50;78.20;;;;;;5051746;28;20041;-77
2021/12/02 02:07:33;;;;;;;8.80;8.40;;;6.50;78.30;;;;;;5051727;28;20044;-77
2021/12/02 02:09:59;;;;;;;8.53;8.13;;;6.50;78.30;;;;;;5035323;28;20040;-77
2021/12/02 02:12:25;;;;;;;9.00;8.60;;;6.50;78.20;;;;;;5051467;28;20044;-77
2021/12/02 02:14:52;;;;;;;8.27;7.87;;;6.50;78.20;;;;;;5034870;28;20501;-77
2021/12/02 02:17:24;;;;;;;7.87;7.47;;;6.50;78.20;;;;;;5022715;28;20045;-76
2021/12/02 02:19:51;;;;;;;9.77;7.30;;;6.50;78.20;;;;;;5036131;28;21146;-77
2021/12/02 02:22:22;;;;;;;7.27;6.97;;;6.60;78.20;;;;;;5052783;28;20033;-77
2021/12/02 02:24:49;;;;;;;7.50;7.20;;;6.60;78.10;;;;;;5051387;28;20477;-77
2021/12/02 02:27:16;;;;;;;7.53;7.13;;;6.70;78.00;;;;;;5051123;28;20040;-77
2021/12/02 02:29:42;;;;;;;7.03;6.63;;;6.70;78.00;;;;;;5036470;28;20045;-77
2021/12/02 02:32:08;;;;;;;6.90;6.60;;;6.70;77.90;;;;;;5051414;28;20041;-77
2021/12/02 02:34:34;;;;;;;6.90;6.60;;;6.70;77.90;;;;;;5051875;28;20040;-77
2021/12/02 02:37:04;;;;;;;7.20;6.90;;;6.80;77.90;;;;;;5052252;28;20298;-77
2021/12/02 02:39:31;;;;;;;6.90;6.60;;;6.80;77.90;;;;;;5051131;28;20025;-77
2021/12/02 02:41:59;;;;;;;7.07;6.77;;;6.80;77.80;;;;;;5034773;28;20389;-77
2021/12/02 02:44:27;;;;;;;7.83;7.43;;;6.80;77.80;;;;;;5034853;28;20386;-77
2021/12/02 02:46:53;;;;;;;7.77;7.40;;;6.80;77.90;;;;;;5045816;28;20045;-77
2021/12/02 02:49:19;;;;;;;7.47;7.17;;;6.80;77.80;;;;;;5053474;28;20029;-76
2021/12/02 02:51:46;;;;;;;7.10;6.80;;;6.90;77.90;;;;;;5051084;28;20025;-76
2021/12/02 02:54:13;;;;;;;8.30;7.90;;;6.90;77.80;;;;;;5052118;28;20041;-76
2021/12/02 02:56:58;;;;;;;8.20;7.80;;;6.90;77.80;;;;;;5051534;28;20028;-77
2021/12/02 03:02:40;;;;;;;7.70;7.30;;;6.90;77.80;;;;;;5045381;28;20032;-77
2021/12/02 03:05:16;;;;;;;7.73;7.33;;;6.80;77.80;;;;;;5038869;28;22362;-77
2021/12/02 03:07:50;;;;;;;7.57;7.27;;;6.80;77.90;;;;;;5029751;28;20029;-77
2021/12/02 03:10:24;;;;;;;8.43;8.03;;;6.80;77.90;;;;;;5033389;28;20033;-77
2021/12/02 03:13:09;;;;;;;8.43;8.03;;;6.80;77.90;;;;;;5046567;28;20041;-77
2021/12/02 03:18:20;;;;;;;8.20;7.80;;;6.80;77.90;;;;;;5036559;28;20033;-77
2021/12/02 03:20:46;;;;;;;7.90;7.50;;;6.80;77.90;;;;;;5032322;28;20037;-77
2021/12/02 03:23:13;;;;;;;7.63;7.33;;;6.90;78.10;;;;;;5048872;28;20036;-77
2021/12/02 03:25:39;;;;;;;8.23;7.83;;;6.90;78.20;;;;;;5049051;28;20036;-77
2021/12/02 03:28:05;;;;;;;8.63;8.23;;;6.90;78.10;;;;;;5047438;28;20044;-77
2021/12/02 03:30:31;;;;;;;9.17;8.77;;;6.90;78.10;;;;;;5043157;28;20033;-76
2021/12/02 03:32:57;;;;;;;8.23;7.77;;;6.90;78.10;;;;;;5039104;28;20045;-76
2021/12/02 03:35:24;;;;;;;8.57;7.97;;;7.00;78.10;;;;;;5047205;28;20501;-76
2021/12/02 03:37:50;;;;;;;8.03;7.63;;;7.00;78.10;;;;;;5049516;28;20040;-76
2021/12/02 03:40:16;;;;;;;9.07;8.67;;;7.00;78.20;;;;;;5051138;28;20035;-76
2021/12/02 03:42:51;;;;;;;8.10;7.70;;;7.10;78.20;;;;;;5050489;28;20462;-76
2021/12/02 03:45:17;;;;;;;8.40;8.00;;;7.10;78.20;;;;;;5046223;28;20062;-76
2021/12/02 03:47:43;;;;;;;8.70;8.30;;;7.10;78.20;;;;;;5023416;28;20049;-76
2021/12/02 03:50:09;;;;;;;7.83;7.47;;;7.10;78.10;;;;;;5050586;28;20033;-76
2021/12/02 03:52:35;;;;;;;8.10;7.70;;;7.10;79.00;;;;;;5032678;28;20053;-76
2021/12/02 03:55:02;;;;;;;7.10;6.80;;;7.10;78.30;;;;;;5050863;28;20037;-76
2021/12/02 03:57:31;;;;;;;7.60;7.30;;;7.10;78.20;;;;;;5050031;28;20033;-77
2021/12/02 03:59:58;;;;;;;7.33;7.03;;;7.20;78.30;;;;;;5050496;28;20032;-77
2021/12/02 04:02:24;;;;;;;8.50;8.10;;;7.20;78.40;;;;;;5049301;28;20405;-77
2021/12/02 04:04:50;;;;;;;8.67;8.13;;;7.20;78.40;;;;;;5050482;28;20029;-76
2021/12/02 04:07:18;;;;;;;7.90;7.50;;;7.20;78.40;;;;;;5050135;28;20466;-76
2021/12/02 04:09:46;;;;;;;8.43;8.03;;;7.20;78.50;;;;;;5051294;28;20040;-77
2021/12/02 04:12:45;;;;;;;8.30;7.80;;;7.30;78.60;;;;;;5050057;28;20029;-76
2021/12/02 04:15:44;;;;;;;8.33;7.93;;;7.20;78.50;;;;;;5045706;28;20044;-77
2021/12/02 04:17:48;;;;;;;9.93;9.43;;;7.30;78.60;;;;;;5032904;28;20045;-77
2021/12/02 04:20:16;;;;;;;8.10;7.70;;;7.20;78.50;;;;;;5049852;28;20021;-77
2021/12/02 04:22:42;;;;;;;10.00;9.50;;;7.30;78.60;;;;;;5049731;28;20033;-77
2021/12/02 04:25:09;;;;;;;9.10;8.70;;;7.30;78.70;;;;;;5050733;28;20033;-77
2021/12/02 04:27:35;;;;;;;9.70;9.30;;;7.30;78.60;;;;;;5050183;28;20029;-76
2021/12/02 04:30:04;;;;;;;9.03;8.63;;;7.20;78.60;;;;;;5050874;28;20021;-76
2021/12/02 04:32:30;;;;;;;8.87;8.47;;;7.30;78.70;;;;;;5039888;28;20393;-76
2021/12/02 04:34:56;;;;;;;8.40;8.00;;;7.30;78.70;;;;;;5049707;28;20041;-76
2021/12/02 04:37:23;;;;;;;9.40;9.00;;;7.30;78.70;;;;;;5050800;28;20241;-76
2021/12/02 04:39:49;;;;;;;8.27;7.87;;;7.30;78.60;;;;;;5035917;28;20409;-76
2021/12/02 04:42:15;;;;;;;9.17;8.70;;;7.30;78.60;;;;;;5054904;28;20036;-76
2021/12/02 04:44:41;;;;;;;9.20;8.80;;;7.30;78.70;;;;;;5034499;28;20052;-76
2021/12/02 04:47:08;;;;;;;10.33;9.83;;;7.30;78.70;;;;;;5054285;28;20060;-76
2021/12/02 04:49:35;;;;;;;8.30;7.90;;;7.30;78.70;;;;;;5053650;28;20036;-76
2021/12/02 04:52:01;;;;;;;8.80;8.40;;;7.30;78.60;;;;;;5037571;28;20056;-76
2021/12/02 04:54:27;;;;;;;8.93;8.53;;;7.30;78.70;;;;;;5053575;28;20401;-76
2021/12/02 04:56:54;;;;;;;8.50;8.10;;;7.30;78.70;;;;;;5054699;28;20033;-76
2021/12/02 04:59:20;;;;;;;8.60;8.20;;;7.20;78.80;;;;;;5054513;28;20386;-76
2021/12/02 05:01:46;;;;;;;9.90;9.43;;;7.20;78.80;;;;;;5054004;28;20033;-76
2021/12/02 05:04:12;;;;;;;11.20;10.70;;;7.20;78.90;;;;;;5054983;28;20441;-76
2021/12/02 05:06:39;;;;;;;8.80;8.30;;;7.20;78.90;;;;;;5054394;28;20037;-76
2021/12/02 05:09:05;;;;;;;11.30;10.80;;;7.20;78.90;;;;;;5053290;28;20036;-77
2021/12/02 05:11:31;;;;;;;8.60;8.20;;;7.20;78.90;;;;;;5054668;28;20033;-76
2021/12/02 05:13:57;;;;;;;9.63;9.23;;;7.20;78.90;;;;;;5052723;28;20048;-77
2021/12/02 05:16:23;;;;;;;8.75;8.35;;;7.20;78.90;;;;;;5036293;28;20394;-76
2021/12/02 05:18:50;;;;;;;8.43;8.03;;;7.20;78.90;;;;;;5052864;28;20021;-76
2021/12/02 05:21:16;;;;;;;8.70;8.30;;;7.20;78.90;;;;;;5035722;28;20033;-76
2021/12/02 05:23:43;;;;;;;8.80;8.33;;;7.10;78.80;;;;;;5052866;28;20040;-77
2021/12/02 05:26:09;;;;;;;9.13;8.73;;;7.10;78.90;;;;;;5053073;28;20029;-76
2021/12/02 05:28:35;;;;;;;8.90;8.50;;;7.10;78.90;;;;;;5054298;28;20135;-76
2021/12/02 05:31:01;;;;;;;9.27;8.87;;;7.10;78.80;;;;;;5047154;28;20040;-76
2021/12/02 05:33:27;;;;;;;8.77;8.37;;;7.10;78.80;;;;;;5035329;28;20075;-76
2021/12/02 05:35:53;;;;;;;8.20;7.80;;;7.10;78.90;;;;;;5054119;28;20021;-77
2021/12/02 05:38:19;;;;;;;8.37;7.97;;;7.10;78.80;;;;;;5053004;28;20388;-76
2021/12/02 05:40:45;;;;;;;8.27;7.87;;;7.10;78.80;;;;;;5053747;28;20045;-77
2021/12/02 05:43:12;;;;;;;8.60;8.20;;;7.10;78.90;;;;;;5054600;28;20048;-77
2021/12/02 05:45:38;;;;;;;7.80;7.47;;;7.00;78.80;;;;;;5052273;28;20360;-76
2021/12/02 05:48:04;;;;;;;9.60;9.10;;;7.00;78.90;;;;;;5052157;28;20529;-76
2021/12/02 05:50:30;;;;;;;8.33;7.93;;;7.00;78.90;;;;;;5035059;28;20040;-76
2021/12/02 05:52:56;;;;;;;7.63;7.33;;;7.00;78.90;;;;;;5053670;28;20041;-76
2021/12/02 05:55:22;;;;;;;8.83;8.43;;;7.00;78.90;;;;;;5054424;28;20036;-76
2021/12/02 05:57:48;;;;;;;8.60;8.20;;;6.90;78.80;;;;;;5053717;28;20043;-76
2021/12/02 06:00:16;;;;;;;28.77;8.77;;;6.90;78.90;;;;;;5049284;28;20028;-76
2021/12/02 06:02:42;;;;;;;7.67;7.37;;;6.90;79.00;;;;;;5052114;28;20064;-77
2021/12/02 06:05:08;;;;;;;8.33;7.93;;;6.90;79.00;;;;;;5052717;28;20465;-78
2021/12/02 06:07:35;;;;;;;8.63;8.23;;;6.90;79.00;;;;;;5052213;28;20048;-76
2021/12/02 06:10:02;;;;;;;8.03;7.63;;;6.80;78.90;;;;;;5052506;28;20048;-76
2021/12/02 06:12:29;;;;;;;9.60;8.50;;;6.90;79.00;;;;;;5035547;28;20045;-76
2021/12/02 06:14:55;;;;;;;8.13;7.73;;;6.80;79.00;;;;;;5053443;28;20032;-76
2021/12/02 06:17:21;;;;;;;8.43;8.03;;;6.80;79.00;;;;;;5050493;28;20037;-76
2021/12/02 06:19:47;;;;;;;8.77;8.37;;;6.80;79.00;;;;;;5053340;28;20025;-77
2021/12/02 06:22:14;;;;;;;8.93;8.53;;;6.80;79.00;;;;;;5052609;28;20496;-77
2021/12/02 06:24:44;;;;;;;8.07;7.67;;;6.80;79.00;;;;;;5048927;28;20033;-78
2021/12/02 06:27:10;;;;;;;8.30;7.87;;;6.70;78.90;;;;;;5050424;28;20037;-77
2021/12/02 06:29:37;;;;;;;8.43;8.03;;;6.70;78.90;;;;;;5053838;28;20389;-77
2021/12/02 06:32:04;;;;;;;10.67;10.17;;;6.70;79.00;;;;;;5027943;28;20052;-77
2021/12/02 06:34:31;;;;;;;7.00;6.70;;;6.70;79.00;;;;;;5052534;28;20040;-77
2021/12/02 06:36:57;;;;;;;6.90;6.60;;;6.70;79.00;;;;;;5037218;28;20025;-77
2021/12/02 06:39:23;;;;;;;7.97;7.37;;;6.70;79.00;;;;;;5030102;28;20041;-77
2021/12/02 06:41:49;;;;;;;7.17;6.87;;;6.60;78.90;;;;;;5046263;28;20065;-76
2021/12/02 06:44:15;;;;;;;7.80;7.30;;;6.60;79.00;;;;;;5047907;28;20033;-76
2021/12/02 06:46:41;;;;;;;7.40;7.10;;;6.60;79.00;;;;;;5047359;28;20049;-76
2021/12/02 06:49:07;;;;;;;8.53;8.03;;;6.60;79.00;;;;;;5015443;28;20068;-77
2021/12/02 06:51:34;;;;;;;8.93;8.43;;;6.60;79.00;;;;;;5050757;28;20047;-76
2021/12/02 06:54:01;;;;;;;10.70;9.83;;;6.50;79.00;;;;;;5031876;28;20044;-76
2021/12/02 06:56:27;;;;;;;10.27;9.33;;;6.50;79.00;;;;;;5030949;28;20033;-77
2021/12/02 06:58:53;;;;;;;8.63;8.23;;;6.50;79.10;;;;;;5036152;28;20040;-77
2021/12/02 07:01:19;;;;;;;8.03;7.63;;;6.50;79.10;;;;;;5046310;28;20025;-76
2021/12/02 07:03:45;;;;;;;9.37;8.53;;;6.50;79.10;;;;;;5036492;28;20038;-77
2021/12/02 07:06:12;;;;;;;8.50;8.10;;;6.50;79.10;;;;;;5037332;28;20037;-77
2021/12/02 07:08:38;;;;;;;8.87;8.37;;;6.50;79.10;;;;;;5040453;28;20045;-75
2021/12/02 07:11:06;;;;;;;8.80;8.40;;;6.40;79.10;;;;;;5047444;28;20033;-79
2021/12/02 07:13:34;;;;;;;9.00;8.50;;;6.50;79.20;;;;;;5047698;28;20378;-77
2021/12/02 07:16:00;;;;;;;8.33;7.93;;;6.40;79.10;;;;;;5022323;28;20032;-77
2021/12/02 07:18:26;;;;;;;7.50;7.20;;;6.40;79.20;;;;;;5042309;28;20037;-76
2021/12/02 07:20:52;;;;;;;8.80;8.40;;;6.40;79.20;;;;;;5023974;28;20033;-77
2021/12/02 07:23:19;;;;;;;8.70;8.30;;;6.30;79.20;;;;;;5041178;28;20092;-77
2021/12/02 07:25:46;;;;;;;8.60;8.20;;;6.30;79.20;;;;;;5038686;28;20041;-77
2021/12/02 07:28:13;;;;;;;8.27;7.87;;;6.30;79.20;;;;;;5023731;28;20028;-78
2021/12/02 07:30:39;;;;;;;14.23;8.17;;;6.20;79.20;;;;;;5039594;28;20513;-76
2021/12/02 07:33:06;;;;;;;8.10;7.70;;;6.20;79.20;;;;;;5042609;28;20033;-76
2021/12/02 07:35:32;;;;;;;8.33;7.93;;;6.20;79.30;;;;;;5023985;28;20104;-79
2021/12/02 07:37:59;;;;;;;8.40;8.00;;;6.20;79.30;;;;;;5041162;28;20041;-79
2021/12/02 07:40:26;;;;;;;8.03;7.63;;;6.20;79.30;;;;;;5026416;28;20041;-79
2021/12/02 07:42:53;;;;;;;7.77;7.40;;;6.20;79.30;;;;;;5043313;28;20470;-78
2021/12/02 07:45:20;;;;;;;7.73;7.33;;;6.20;79.30;;;;;;5024301;28;20049;-78
2021/12/02 07:47:46;;;;;;;8.00;7.60;;;6.10;79.30;;;;;;5039915;28;20049;-81
2021/12/02 07:50:13;;;;;;;7.53;7.23;;;6.10;79.20;;;;;;5040132;28;20037;-79
2021/12/02 07:52:50;;;;;;;7.53;7.23;;;6.10;79.20;;;;;;5041886;28;20041;-79
2021/12/02 07:55:16;;;;;;;8.00;7.60;;;6.10;79.20;;;;;;5025165;28;20053;-79
2021/12/02 07:57:43;;;;;;;7.90;7.50;;;6.10;79.30;;;;;;5039702;28;20048;-78
2021/12/02 08:00:14;;;;;;;7.43;7.13;;;6.10;79.20;;;;;;5042190;28;20370;-81
2021/12/02 08:02:44;;;;;;;7.10;6.80;;;6.10;79.20;;;;;;5046530;28;20374;-80
2021/12/02 08:05:10;;;;;;;6.80;6.50;;;6.10;79.30;;;;;;5041640;28;20039;-78
2021/12/02 08:07:39;;;;;;;6.77;6.47;;;6.00;79.30;;;;;;5042498;28;20275;-83
2021/12/02 08:10:09;;;;;;;6.33;6.03;;;6.00;79.30;;;;;;5042299;28;20060;-78
2021/12/02 08:12:36;;;;;;;6.23;5.93;;;6.00;79.30;;;;;;5044042;28;20025;-79
2021/12/02 08:15:04;;;;;;;6.50;6.20;;;6.00;79.20;;;;;;5041692;28;20064;-80
2021/12/02 08:17:30;;;;;;;6.47;6.17;;;6.00;79.30;;;;;;5041227;28;20039;-79
2021/12/02 08:19:56;;;;;;;6.83;6.53;;;6.00;79.30;;;;;;5041745;28;20419;-80
2021/12/02 08:22:31;;;;;;;7.00;6.60;;;6.00;79.30;;;;;;5043616;28;20481;-79
2021/12/02 08:24:58;;;;;;;13.63;6.97;;;6.00;79.30;;;;;;5041616;28;20036;-79
2021/12/02 08:27:24;;;;;;;7.00;6.70;;;6.00;79.30;;;;;;5044142;28;20025;-77
2021/12/02 08:29:51;;;;;;;6.57;6.27;;;6.00;79.20;;;;;;5042081;28;20033;-78
2021/12/02 08:32:17;;;;;;;6.73;6.33;;;6.00;79.10;;;;;;5025239;28;20029;-80
2021/12/02 08:34:43;;;;;;;6.77;6.37;;;6.00;79.10;;;;;;5047071;28;20041;-80
2021/12/02 08:37:11;;;;;;;6.80;6.40;;;6.00;79.10;;;;;;5048642;28;20443;-79
2021/12/02 08:39:40;;;;;;;7.50;7.10;;;6.00;79.10;;;;;;5046989;28;20060;-77
2021/12/02 08:42:08;;;;;;;6.80;6.50;;;6.00;79.10;;;;;;5041551;28;20358;-77
2021/12/02 08:44:38;;;;;;;6.20;5.90;;;6.00;79.10;;;;;;5046112;28;20033;-77
2021/12/02 08:47:06;;;;;;;6.53;6.23;;;6.00;79.00;;;;;;5047119;28;20045;-79
2021/12/02 08:49:32;;;;;;;6.27;5.97;;;6.10;79.10;;;;;;5049639;28;20025;-79
2021/12/02 08:51:58;;;;;;;8.37;7.97;;;6.10;79.00;;;;;;5049270;28;20458;-83
2021/12/02 08:54:24;;;;;;;7.97;7.47;;;6.10;78.90;;;;;;5047897;28;20037;-85
2021/12/02 08:56:51;;;;;;;7.10;6.80;;;6.20;79.00;;;;;;5048094;28;20025;-86
2021/12/02 08:59:17;;;;;;;6.23;5.93;;;6.20;78.90;;;;;;5048605;28;20047;-83
2021/12/02 09:01:43;;;;;;;6.27;5.97;;;6.40;78.90;;;;;;5047832;28;20040;-84
2021/12/02 09:04:09;;;;;;;7.47;7.03;;;6.50;78.60;;;;;;5048576;28;20036;-83
2021/12/02 09:06:35;;;;;;;6.73;6.43;;;6.50;78.40;;;;;;5032756;28;20486;-83
2021/12/02 09:09:02;;;;;;;7.13;6.83;;;6.60;78.40;;;;;;5048918;28;20482;-83
2021/12/02 09:11:30;;;;;;;11.67;11.13;;;6.70;78.20;;;;;;5029120;28;20045;-82
2021/12/02 09:14:01;;;;;;;11.60;10.70;;;6.70;78.10;;;;;;5030539;28;20036;-83
2021/12/02 09:16:29;;;;;;;9.97;9.40;;;6.80;78.10;;;;;;5045913;28;20025;-83
2021/12/02 09:18:55;;;;;;;9.17;8.77;;;6.80;77.90;;;;;;5047336;28;20474;-80
2021/12/02 09:21:22;;;;;;;9.40;9.00;;;6.80;77.90;;;;;;5045925;28;20398;-83
2021/12/02 09:23:48;;;;;;;8.37;7.97;;;6.90;77.90;;;;;;5050049;28;20052;-82
2021/12/02 09:26:14;;;;;;;8.40;8.00;;;6.90;77.80;;;;;;5049993;28;20036;-84
2021/12/02 09:28:40;;;;;;;9.80;9.10;;;6.90;77.70;;;;;;5034432;28;20045;-75
2021/12/02 09:31:07;;;;;;;8.57;8.17;;;6.90;77.70;;;;;;5054477;28;20064;-79
2021/12/02 09:33:33;;;;;;;8.90;8.40;;;7.00;77.60;;;;;;5050810;28;20033;-80
2021/12/02 09:35:59;;;;;;;8.20;7.80;;;7.00;77.50;;;;;;5055565;28;20477;-80
2021/12/02 09:38:25;;;;;;;7.93;7.53;;;7.00;77.50;;;;;;5052888;28;20037;-81
2021/12/02 09:40:54;;;;;;;8.10;7.70;;;7.00;77.50;;;;;;5052465;28;20056;-81
2021/12/02 09:43:23;;;;;;;8.20;7.80;;;7.00;77.40;;;;;;5051975;28;20403;-82
2021/12/02 09:45:49;;;;;;;9.00;8.40;;;7.00;77.40;;;;;;5034644;28;20039;-82
2021/12/02 09:48:16;;;;;;;8.37;7.97;;;7.10;77.40;;;;;;5045492;28;20517;-83
2021/12/02 09:50:54;;;;;;;8.50;8.10;;;7.20;77.30;;;;;;5050294;28;20036;-82
2021/12/02 09:53:26;;;;;;;8.27;7.87;;;7.40;76.90;;;;;;5046026;28;20297;-82
2021/12/02 09:56:36;;;;;;;8.00;7.60;;;7.60;76.50;;;;;;5029569;28;20049;-81
2021/12/02 09:58:43;;;;;;;8.85;8.45;;;7.70;76.10;;;;;;5041693;28;20351;-82
2021/12/02 10:01:15;;;;;;;7.18;6.88;;;7.80;75.70;;;;;;5052124;28;20033;-82
2021/12/02 10:03:44;;;;;;;7.55;7.25;;;7.90;75.50;;;;;;5052215;28;20036;-83
2021/12/02 10:06:24;;;;;;;7.65;7.25;;;8.00;75.40;;;;;;5049730;28;20025;-81
2021/12/02 10:09:05;;;;;;;8.77;8.38;;;8.10;75.10;;;;;;5050778;28;20048;-81
2021/12/02 10:11:40;;;;;;;9.07;8.68;;;8.20;75.00;;;;;;5051329;28;20033;-80
2021/12/02 10:14:26;;;;;;;9.05;8.65;;;8.10;75.00;;;;;;5050949;28;20062;-81
2021/12/02 10:17:17;;;;;;;9.50;8.90;;;8.10;75.10;;;;;;5051063;28;20757;-80
2021/12/02 10:20:17;;;;;;;10.98;10.48;;;8.10;75.30;;;;;;5055330;28;20032;-79
2021/12/02 10:23:01;;;;;;;8.88;8.48;;;8.00;75.30;;;;;;5043467;28;20041;-79
2021/12/02 10:25:32;;;;;;;10.35;9.70;;;8.00;75.40;;;;;;5049577;28;20025;-78
2021/12/02 10:28:09;;;;;;;10.98;10.48;;;8.00;75.40;;;;;;5043189;28;20037;-78
2021/12/02 10:30:43;;;;;;;9.75;9.35;;;8.00;75.30;;;;;;5043173;28;20029;-79
2021/12/02 10:33:13;;;;;;;9.57;9.18;;;7.90;75.20;;;;;;5041623;28;20052;-85
2021/12/02 10:35:45;;;;;;;10.23;9.73;;;7.90;75.40;;;;;;5041883;28;20052;-80
2021/12/02 10:38:32;;;;;;;9.70;9.30;;;7.90;75.40;;;;;;5040607;28;20017;-80
2021/12/02 10:41:03;;;;;;;10.27;9.77;;;7.90;75.40;;;;;;5041780;28;20033;-79
2021/12/02 10:43:29;;;;;;;10.90;10.30;;;8.00;75.50;;;;;;5025449;28;20033;-82
2021/12/02 10:46:15;;;;;;;10.20;9.70;;;8.00;75.40;;;;;;5041513;28;20044;-84
2021/12/02 10:48:47;;;;;;;10.80;10.20;;;8.00;75.40;;;;;;5041363;28;20041;-81
2021/12/02 10:51:51;;;;;;;10.38;9.88;;;8.00;75.30;;;;;;5045021;28;20029;-83
2021/12/02 10:54:19;;;;;;;10.85;10.23;;;8.00;75.40;;;;;;5047395;28;20036;-85
2021/12/02 10:56:48;;;;;;;10.10;9.60;;;8.00;75.20;;;;;;5048150;28;20025;-83
2021/12/02 10:59:30;;;;;;;10.02;9.52;;;8.00;75.30;;;;;;5049411;28;20378;-82
2021/12/02 11:02:02;;;;;;;10.38;9.88;;;8.10;75.40;;;;;;5031936;28;20030;-85
2021/12/02 11:04:35;;;;;;;10.50;10.00;;;8.10;75.30;;;;;;5032353;28;20029;-84
2021/12/02 11:07:02;;;;;;;10.63;10.13;;;8.10;75.20;;;;;;5048717;28;20111;-87
2021/12/02 11:09:43;;;;;;;14.95;14.25;;;8.10;75.00;;;;;;5049672;28;20032;-83
2021/12/02 11:12:24;;;;;;;10.33;9.83;;;8.00;75.00;;;;;;5049484;28;20044;-83
2021/12/02 11:15:01;;;;;;;10.45;9.95;;;8.10;75.20;;;;;;5047829;28;20044;-83
2021/12/02 11:17:33;;;;;;;10.48;9.93;;;8.00;75.10;;;;;;5049181;28;20041;-84
2021/12/02 11:20:05;;;;;;;10.30;9.80;;;8.00;75.20;;;;;;5050575;28;20028;-84
2021/12/02 11:22:31;;;;;;;16.38;12.85;;;8.00;75.10;;;;;;5050912;28;20385;-87
2021/12/02 11:24:58;;;;;;;10.25;9.75;;;8.00;75.10;;;;;;5049074;28;20048;-84
2021/12/02 11:27:31;;;;;;;10.20;9.70;;;8.00;75.20;;;;;;5050459;28;20029;-87
2021/12/02 11:29:59;;;;;;;10.32;9.82;;;8.00;75.20;;;;;;5031495;28;20041;-82
2021/12/02 11:32:28;;;;;;;9.67;9.27;;;7.90;75.10;;;;;;5032819;28;20034;-88
2021/12/02 11:35:13;;;;;;;12.40;11.80;;;7.90;75.20;;;;;;5033471;28;20049;-85
2021/12/02 11:37:42;;;;;;;9.25;8.85;;;7.90;75.20;;;;;;5049474;28;20039;-85
2021/12/02 11:40:10;;;;;;;9.70;9.30;;;7.90;75.20;;;;;;5048998;28;20021;-86
2021/12/02 11:42:37;;;;;;;9.88;9.40;;;7.90;75.20;;;;;;5049661;28;20025;-84
2021/12/02 11:45:04;;;;;;;9.80;9.40;;;7.90;75.20;;;;;;5049387;28;20386;-83
2021/12/02 11:47:30;;;;;;;9.45;9.05;;;7.90;75.20;;;;;;5044786;28;20414;-84
2021/12/02 11:49:57;;;;;;;9.45;8.95;;;7.90;75.20;;;;;;5032971;28;20044;-86
2021/12/02 11:52:23;;;;;;;9.40;8.98;;;7.90;75.30;;;;;;5032037;28;20533;-84
2021/12/02 11:54:49;;;;;;;9.77;9.30;;;7.90;75.20;;;;;;5048887;28;20045;-81
2021/12/02 11:57:15;;;;;;;9.25;8.85;;;8.00;75.20;;;;;;5049093;28;20032;-84
2021/12/02 11:59:41;;;;;;;9.18;8.77;;;8.00;75.10;;;;;;5050131;28;20488;-85
2021/12/02 12:02:07;;;;;;;13.25;8.93;;;8.10;75.10;;;;;;5048442;28;20025;-83
2021/12/02 12:04:38;;;;;;;9.63;9.23;;;8.20;75.00;;;;;;5048463;28;20033;-80
2021/12/02 12:07:09;;;;;;;24.92;9.88;;;8.20;75.00;;;;;;5047653;28;20032;-81
2021/12/02 12:09:35;;;;;;;10.02;9.55;;;8.20;75.00;;;;;;5049679;28;20033;-78
2021/12/02 12:12:03;;;;;;;10.50;10.00;;;8.30;74.90;;;;;;5043759;28;20029;-81
2021/12/02 12:14:38;;;;;;;9.70;9.30;;;8.30;74.90;;;;;;5049596;28;20032;-79
2021/12/02 12:17:10;;;;;;;9.55;9.15;;;8.30;74.90;;;;;;5035154;28;20091;-82
2021/12/02 12:19:47;;;;;;;10.90;10.30;;;8.30;74.90;;;;;;5049667;28;20485;-82
2021/12/02 12:22:35;;;;;;;10.20;9.70;;;8.30;75.00;;;;;;5050140;28;20037;-81
2021/12/02 12:25:08;;;;;;;9.55;9.15;;;8.30;75.00;;;;;;5048945;28;20481;-83
2021/12/02 12:27:36;;;;;;;10.05;9.57;;;8.20;75.00;;;;;;5030534;28;20033;-82
2021/12/02 12:33:01;;;;;;;10.18;9.68;;;8.30;75.10;;;;;;5053967;28;20053;-80
2021/12/02 12:35:36;;;;;;;10.35;9.85;;;8.30;75.00;;;;;;5049369;28;20040;-80
2021/12/02 12:38:18;;;;;;;9.80;9.38;;;8.30;75.00;;;;;;5049080;28;20390;-79
2021/12/02 12:40:46;;;;;;;10.20;9.63;;;8.30;75.00;;;;;;5049663;28;20032;-81
2021/12/02 12:43:16;;;;;;;10.10;9.60;;;8.30;74.90;;;;;;5051208;28;20036;-79
2021/12/02 12:45:43;;;;;;;9.50;9.10;;;8.30;74.90;;;;;;5048216;28;20036;-82
2021/12/02 12:48:10;;;;;;;10.95;10.35;;;8.30;74.90;;;;;;5048960;28;20052;-80
2021/12/02 12:50:37;;;;;;;9.38;8.98;;;8.30;75.00;;;;;;5031907;28;20040;-81
2021/12/02 12:53:03;;;;;;;9.55;9.15;;;8.30;75.00;;;;;;5044790;28;20390;-82
2021/12/02 12:55:39;;;;;;;8.65;8.25;;;8.40;75.00;;;;;;5044684;28;20046;-80
2021/12/02 12:58:13;;;;;;;9.10;8.70;;;8.30;74.90;;;;;;5050971;28;20036;-81
2021/12/02 13:00:44;;;;;;;9.38;8.98;;;8.40;75.00;;;;;;5040850;28;20029;-84
2021/12/02 13:03:15;;;;;;;9.80;9.40;;;8.40;75.00;;;;;;5053927;28;20025;-92
2021/12/02 13:05:47;;;;;;;;;;;8.40;75.00;;;;;;5053804;28;20049;-83
2021/12/02 13:08:18;;;;;;;9.55;8.85;;;8.40;75.00;;;;;;5053367;28;19916;-83
2021/12/02 13:11:00;;;;;;;;;;;8.40;75.00;;;;;;5053733;28;20370;-81
2021/12/02 13:13:33;;;;;;;8.95;8.55;;;8.40;75.00;;;;;;5049917;28;19913;-82
2021/12/02 13:16:10;;;;;;;8.90;8.50;;;8.40;74.90;;;;;;5046911;28;20048;-83
2021/12/02 13:18:38;;;;;;;9.90;9.40;;;8.40;74.90;;;;;;5050452;28;20044;-83